createdAt,value
2018-03-15T00:00:43.335Z,77.70
2018-03-15T00:03:16.735Z,77.90
2018-03-15T00:05:44.349Z,77.70
2018-03-15T00:08:12.037Z,78.20
2018-03-15T00:10:40.838Z,79.00
2018-03-15T00:13:09.424Z,78.50
2018-03-15T00:15:37.368Z,78.60
2018-03-15T00:18:05.761Z,79.00
2018-03-15T00:20:33.357Z,78.90
2018-03-15T00:23:00.929Z,79.00
2018-03-15T00:25:29.375Z,78.80
2018-03-15T00:27:57.074Z,78.80
2018-03-15T00:30:26.206Z,78.50
2018-03-15T00:32:54.056Z,78.50
2018-03-15T00:35:21.623Z,78.70
2018-03-15T00:37:49.661Z,78.30
2018-03-15T00:40:17.522Z,78.80
2018-03-15T00:42:45.824Z,79.40
2018-03-15T00:45:13.450Z,79.80
2018-03-15T00:47:41.613Z,79.80
2018-03-15T00:50:09.256Z,79.90
2018-03-15T00:52:36.805Z,80.00
2018-03-15T00:55:04.582Z,79.90
2018-03-15T00:57:32.472Z,79.80
2018-03-15T01:00:00.050Z,80.00
2018-03-15T01:02:27.710Z,79.90
2018-03-15T01:04:55.256Z,79.60
2018-03-15T01:07:22.869Z,79.30
2018-03-15T01:09:51.170Z,79.10
2018-03-15T01:12:18.812Z,78.70
2018-03-15T01:14:46.394Z,78.80
2018-03-15T01:17:14.646Z,78.90
2018-03-15T01:19:42.590Z,79.00
2018-03-15T01:22:10.276Z,79.40
2018-03-15T01:24:37.866Z,79.90
2018-03-15T01:27:05.928Z,79.90
2018-03-15T01:29:33.763Z,79.90
2018-03-15T01:32:01.499Z,80.10
2018-03-15T01:34:29.711Z,80.40
2018-03-15T01:36:57.473Z,80.40
2018-03-15T01:39:25.599Z,80.60
2018-03-15T01:41:53.228Z,80.30
2018-03-15T01:44:21.385Z,80.30
2018-03-15T01:46:48.976Z,80.30
2018-03-15T01:49:17.709Z,79.90
2018-03-15T01:51:46.087Z,79.90
2018-03-15T01:54:13.599Z,79.80
2018-03-15T01:56:41.256Z,80.10
2018-03-15T01:59:09.355Z,80.00
2018-03-15T02:01:36.990Z,80.10
2018-03-15T02:04:04.511Z,79.80
2018-03-15T02:06:32.923Z,80.40
2018-03-15T02:09:00.451Z,80.40
2018-03-15T02:11:28.868Z,80.60
2018-03-15T02:13:56.393Z,80.60
2018-03-15T02:16:23.985Z,80.60
2018-03-15T02:18:51.652Z,80.60
2018-03-15T02:21:19.525Z,80.90
2018-03-15T02:23:47.069Z,80.50
2018-03-15T02:26:14.567Z,80.30
2018-03-15T02:28:42.152Z,80.20
2018-03-15T02:31:09.669Z,80.40
2018-03-15T02:33:37.219Z,80.70
2018-03-15T02:36:04.873Z,80.90
2018-03-15T02:38:32.423Z,81.30
2018-03-15T02:41:00.477Z,81.60
2018-03-15T02:43:28.944Z,81.90
2018-03-15T02:45:57.282Z,81.40
2018-03-15T02:48:25.022Z,81.50
2018-03-15T02:50:52.586Z,81.80
2018-03-15T02:53:20.981Z,81.80
2018-03-15T02:55:49.282Z,81.40
2018-03-15T02:58:16.840Z,81.10
2018-03-15T03:00:44.411Z,81.30
2018-03-15T03:03:13.465Z,80.90
2018-03-15T03:05:41.205Z,80.90
2018-03-15T03:08:08.781Z,80.40
2018-03-15T03:10:36.355Z,80.90
2018-03-15T03:13:03.957Z,80.80
2018-03-15T03:15:31.493Z,80.90
2018-03-15T03:17:59.692Z,80.80
2018-03-15T03:20:27.297Z,81.10
2018-03-15T03:22:55.424Z,81.10
2018-03-15T03:25:24.668Z,81.60
2018-03-15T03:27:52.281Z,81.50
2018-03-15T03:30:20.744Z,81.20
2018-03-15T03:32:48.284Z,81.40
2018-03-15T03:35:16.072Z,81.40
2018-03-15T03:37:43.630Z,81.60
2018-03-15T03:40:11.171Z,82.10
2018-03-15T03:42:38.767Z,82.60
2018-03-15T03:45:06.327Z,82.90
2018-03-15T03:47:33.909Z,83.20
2018-03-15T03:50:01.644Z,83.00
2018-03-15T03:52:29.204Z,83.10
2018-03-15T03:54:56.766Z,83.10
2018-03-15T03:57:24.374Z,83.10
2018-03-15T03:59:52.061Z,83.90
2018-03-15T04:02:20.331Z,83.10
2018-03-15T04:04:48.439Z,82.80
2018-03-15T04:07:16.050Z,82.70
2018-03-15T04:09:43.662Z,82.10
2018-03-15T04:12:11.488Z,82.00
2018-03-15T04:14:39.108Z,82.30
2018-03-15T04:17:06.655Z,81.50
2018-03-15T04:19:34.244Z,81.50
2018-03-15T04:22:02.240Z,81.20
2018-03-15T04:24:29.912Z,81.30
2018-03-15T04:26:57.726Z,81.70
2018-03-15T04:29:25.477Z,81.50
2018-03-15T04:31:53.544Z,81.70
2018-03-15T04:34:21.106Z,82.20
2018-03-15T04:36:48.670Z,82.20
2018-03-15T04:39:18.024Z,82.60
2018-03-15T04:41:45.625Z,82.50
2018-03-15T04:44:13.184Z,82.70
2018-03-15T04:46:40.897Z,82.50
2018-03-15T04:49:08.865Z,82.50
2018-03-15T04:51:36.940Z,82.70
2018-03-15T04:54:04.550Z,82.50
2018-03-15T04:56:32.161Z,82.60
2018-03-15T04:58:59.961Z,82.80
2018-03-15T05:01:27.639Z,82.60
2018-03-15T05:03:55.192Z,82.20
2018-03-15T05:06:22.943Z,82.30
2018-03-15T05:08:50.681Z,82.20
2018-03-15T05:11:18.246Z,82.30
2018-03-15T05:13:45.805Z,82.30
2018-03-15T05:16:13.856Z,82.40
2018-03-15T05:18:41.434Z,82.10
2018-03-15T05:21:08.961Z,81.60
2018-03-15T05:23:38.484Z,81.50
2018-03-15T05:26:06.670Z,81.50
2018-03-15T05:28:34.137Z,81.50
2018-03-15T05:31:01.710Z,81.60
2018-03-15T05:33:30.035Z,81.70
2018-03-15T05:35:57.562Z,81.70
2018-03-15T05:38:25.077Z,81.90
2018-03-15T05:40:52.619Z,82.20
2018-03-15T05:43:20.980Z,82.90
2018-03-15T05:45:48.530Z,82.90
2018-03-15T05:48:16.050Z,83.10
2018-03-15T05:50:43.608Z,83.00
2018-03-15T05:53:11.157Z,82.40
2018-03-15T05:55:38.704Z,82.60
2018-03-15T05:58:06.643Z,82.20
2018-03-15T06:00:34.677Z,82.20
2018-03-15T06:03:02.348Z,82.50
2018-03-15T06:05:29.971Z,82.50
2018-03-15T06:07:58.278Z,82.80
2018-03-15T06:10:25.847Z,82.80
2018-03-15T06:12:53.371Z,82.70
2018-03-15T06:15:21.051Z,82.70
2018-03-15T06:17:48.643Z,82.90
2018-03-15T06:20:16.386Z,82.90
2018-03-15T06:22:43.920Z,82.40
2018-03-15T06:25:11.976Z,82.50
2018-03-15T06:27:39.694Z,83.10
2018-03-15T06:30:07.940Z,83.30
2018-03-15T06:32:36.081Z,83.30
2018-03-15T06:35:04.644Z,82.80
2018-03-15T06:37:32.191Z,82.70
2018-03-15T06:39:59.717Z,82.80
2018-03-15T06:42:28.476Z,82.80
2018-03-15T06:44:56.028Z,82.30
2018-03-15T06:47:23.553Z,81.80
2018-03-15T06:49:51.631Z,82.10
2018-03-15T06:52:19.209Z,81.20
2018-03-15T06:54:46.953Z,81.30
2018-03-15T06:57:14.594Z,80.90
2018-03-15T06:59:42.828Z,81.20
2018-03-15T07:02:10.437Z,81.60
2018-03-15T07:04:37.958Z,82.30
2018-03-15T07:07:10.004Z,82.30
2018-03-15T07:09:37.521Z,82.90
2018-03-15T07:12:05.607Z,82.80
2018-03-15T07:14:33.492Z,82.60
2018-03-15T07:17:01.296Z,82.90
2018-03-15T07:19:29.162Z,82.70
2018-03-15T07:21:56.687Z,82.20
2018-03-15T07:24:24.223Z,82.00
2018-03-15T07:26:52.857Z,81.70
2018-03-15T07:29:20.426Z,81.20
2018-03-15T07:31:48.228Z,81.20
2018-03-15T07:34:15.777Z,80.90
2018-03-15T07:36:43.362Z,80.80
2018-03-15T07:39:11.413Z,81.00
2018-03-15T07:41:39.250Z,80.90
2018-03-15T07:44:06.781Z,80.40
2018-03-15T07:46:34.542Z,79.80
2018-03-15T07:49:02.080Z,79.10
2018-03-15T07:51:29.616Z,78.70
2018-03-15T07:53:57.122Z,79.30
2018-03-15T07:56:25.587Z,79.70
2018-03-15T07:58:53.218Z,79.90
2018-03-15T08:01:20.982Z,80.20
2018-03-15T08:03:49.232Z,80.10
2018-03-15T08:06:16.791Z,79.80
2018-03-15T08:08:45.070Z,78.90
2018-03-15T08:11:13.376Z,78.90
2018-03-15T08:13:40.902Z,78.80
2018-03-15T08:16:08.470Z,79.10
2018-03-15T08:18:37.298Z,79.70
2018-03-15T08:21:05.510Z,79.70
2018-03-15T08:23:33.087Z,79.80
2018-03-15T08:26:02.438Z,80.50
2018-03-15T08:28:30.042Z,79.70
2018-03-15T08:30:58.476Z,80.10
2018-03-15T08:33:26.022Z,80.10
2018-03-15T08:35:54.014Z,79.70
2018-03-15T08:38:22.615Z,80.30
2018-03-15T08:40:50.631Z,80.00
2018-03-15T08:43:18.323Z,80.00
2018-03-15T08:45:45.880Z,79.50
2018-03-15T08:48:13.725Z,78.30
2018-03-15T08:50:41.393Z,78.30
2018-03-15T08:53:09.264Z,78.70
2018-03-15T08:55:37.842Z,77.40
2018-03-15T08:58:05.367Z,77.30
2018-03-15T09:00:33.178Z,77.10
2018-03-15T09:03:00.697Z,76.80
2018-03-15T09:05:29.106Z,76.40
2018-03-15T09:07:56.979Z,76.40
2018-03-15T09:10:24.527Z,75.70
2018-03-15T09:12:52.304Z,74.80
2018-03-15T09:15:19.868Z,75.00
2018-03-15T09:17:48.141Z,74.80
2018-03-15T09:20:15.733Z,74.70
2018-03-15T09:22:43.315Z,74.00
2018-03-15T09:25:12.311Z,72.40
2018-03-15T09:27:41.370Z,71.70
2018-03-15T09:30:08.957Z,71.70
2018-03-15T09:32:37.288Z,70.70
2018-03-15T09:35:05.024Z,70.70
2018-03-15T09:37:32.601Z,70.90
2018-03-15T09:40:00.150Z,70.70
2018-03-15T09:42:28.462Z,70.20
2018-03-15T09:44:56.544Z,70.70
2018-03-15T09:47:24.210Z,71.20
2018-03-15T09:49:51.806Z,71.80
2018-03-15T09:52:19.412Z,72.10
2018-03-15T09:54:47.019Z,71.90
2018-03-15T09:57:14.560Z,72.20
2018-03-15T09:59:42.157Z,71.90
2018-03-15T10:02:09.867Z,71.40
2018-03-15T10:04:39.395Z,69.00
2018-03-15T10:07:07.705Z,68.90
2018-03-15T10:09:35.262Z,68.90
2018-03-15T10:12:02.886Z,68.70
2018-03-15T10:14:30.386Z,69.20
2018-03-15T10:16:57.941Z,68.90
2018-03-15T10:19:25.908Z,69.10
2018-03-15T10:21:53.430Z,69.60
2018-03-15T10:24:21.761Z,70.20
2018-03-15T10:26:49.341Z,70.20
2018-03-15T10:29:17.550Z,70.60
2018-03-15T10:31:46.806Z,70.00
2018-03-15T10:34:14.341Z,70.00
2018-03-15T10:36:42.232Z,68.80
2018-03-15T10:39:10.543Z,68.50
2018-03-15T10:41:38.647Z,68.50
2018-03-15T10:44:06.183Z,69.00
2018-03-15T10:46:34.051Z,69.10
2018-03-15T10:49:02.083Z,68.00
2018-03-15T10:51:30.594Z,67.10
2018-03-15T10:53:58.247Z,65.80
2018-03-15T10:56:25.816Z,65.60
2018-03-15T10:58:53.860Z,64.70
2018-03-15T11:01:22.349Z,64.50
2018-03-15T11:03:50.294Z,64.10
2018-03-15T11:06:23.586Z,64.20
2018-03-15T11:08:56.825Z,63.50
2018-03-15T11:11:25.068Z,62.80
2018-03-15T11:13:53.003Z,62.00
2018-03-15T11:16:20.559Z,61.90
2018-03-15T11:18:48.440Z,62.40
2018-03-15T11:21:15.955Z,62.40
2018-03-15T11:23:44.079Z,62.70
2018-03-15T11:26:11.727Z,63.10
2018-03-15T11:28:39.253Z,63.20
2018-03-15T11:31:06.851Z,62.60
2018-03-15T11:33:35.019Z,63.00
2018-03-15T11:36:04.100Z,63.90
2018-03-15T11:38:31.635Z,63.90
2018-03-15T11:40:59.192Z,63.70
2018-03-15T11:43:26.759Z,63.20
2018-03-15T11:45:54.301Z,62.50
2018-03-15T11:48:22.990Z,62.30
2018-03-15T11:50:51.350Z,62.20
2018-03-15T11:53:19.170Z,61.40
2018-03-15T11:55:47.188Z,61.80
2018-03-15T11:58:15.064Z,61.40
2018-03-15T12:00:43.467Z,62.10
2018-03-15T12:03:11.008Z,62.50
2018-03-15T12:05:38.619Z,62.40
2018-03-15T12:08:06.916Z,62.40
2018-03-15T12:10:36.340Z,62.40
2018-03-15T12:13:03.969Z,62.00
2018-03-15T12:15:31.518Z,61.50
2018-03-15T12:17:59.893Z,61.60
2018-03-15T12:20:27.423Z,61.60
2018-03-15T12:22:55.008Z,61.50
2018-03-15T12:25:22.574Z,62.20
2018-03-15T12:27:50.161Z,61.90
2018-03-15T12:30:18.620Z,62.50
2018-03-15T12:32:46.333Z,62.30
2018-03-15T12:35:14.088Z,62.40
2018-03-15T12:37:42.572Z,62.60
2018-03-15T12:40:10.152Z,61.60
2018-03-15T12:42:37.774Z,61.40
2018-03-15T12:45:06.598Z,62.00
2018-03-15T12:47:34.809Z,61.90
2018-03-15T12:50:03.345Z,62.00
2018-03-15T12:52:31.037Z,62.00
2018-03-15T12:54:58.582Z,62.60
2018-03-15T12:57:26.182Z,62.40
2018-03-15T12:59:53.673Z,62.20
2018-03-15T13:02:21.257Z,62.10
2018-03-15T13:04:49.809Z,61.40
2018-03-15T13:07:17.373Z,61.00
2018-03-15T13:09:45.207Z,60.80
2018-03-15T13:12:12.835Z,60.80
2018-03-15T13:14:40.377Z,61.40
2018-03-15T13:17:07.911Z,60.90
2018-03-15T13:19:35.554Z,60.60
2018-03-15T13:22:03.159Z,61.00
2018-03-15T13:24:30.764Z,60.60
2018-03-15T13:26:58.980Z,60.90
2018-03-15T13:29:26.528Z,60.90
2018-03-15T13:31:54.084Z,60.70
2018-03-15T13:34:22.381Z,61.60
2018-03-15T13:36:50.198Z,61.60
2018-03-15T13:39:18.661Z,62.60
2018-03-15T13:41:46.826Z,62.60
2018-03-15T13:44:14.502Z,62.60
2018-03-15T13:46:42.046Z,63.30
2018-03-15T13:49:09.576Z,63.50
2018-03-15T13:51:37.124Z,64.20
2018-03-15T13:54:05.439Z,63.80
2018-03-15T13:56:33.001Z,63.80
2018-03-15T13:59:00.892Z,63.90
2018-03-15T14:01:28.396Z,64.30
2018-03-15T14:03:56.029Z,64.30
2018-03-15T14:06:23.737Z,63.90
2018-03-15T14:08:52.041Z,63.60
2018-03-15T14:11:20.225Z,63.50
2018-03-15T14:13:47.795Z,63.60
2018-03-15T14:16:15.319Z,64.20
2018-03-15T14:18:42.844Z,64.50
2018-03-15T14:21:10.743Z,64.20
2018-03-15T14:23:38.457Z,64.00
2018-03-15T14:26:07.068Z,63.20
2018-03-15T14:28:34.601Z,63.10
2018-03-15T14:31:03.237Z,62.90
2018-03-15T14:33:31.667Z,63.10
2018-03-15T14:35:59.376Z,64.20
2018-03-15T14:38:26.940Z,63.80
2018-03-15T14:40:55.306Z,64.60
2018-03-15T14:43:23.293Z,63.20
2018-03-15T14:45:50.819Z,63.20
2018-03-15T14:48:18.531Z,63.10
2018-03-15T14:50:46.913Z,63.30
2018-03-15T14:53:14.680Z,63.50
2018-03-15T14:55:42.696Z,63.50
2018-03-15T14:58:10.256Z,63.00
2018-03-15T15:00:39.295Z,62.90
2018-03-15T15:03:06.848Z,62.90
2018-03-15T15:05:34.378Z,62.50
2018-03-15T15:08:01.918Z,62.50
2018-03-15T15:10:29.487Z,62.40
2018-03-15T15:12:57.921Z,63.50
2018-03-15T15:15:25.628Z,63.40
2018-03-15T15:17:54.042Z,64.20
2018-03-15T15:20:21.600Z,64.20
2018-03-15T15:22:49.235Z,64.20
2018-03-15T15:25:17.910Z,63.90
2018-03-15T15:27:46.289Z,64.10
2018-03-15T15:30:14.616Z,64.10
2018-03-15T15:32:42.290Z,64.50
2018-03-15T15:35:09.919Z,64.70
2018-03-15T15:37:37.652Z,65.00
2018-03-15T15:40:05.221Z,64.80
2018-03-15T15:42:34.477Z,64.80
2018-03-15T15:45:02.321Z,64.80
2018-03-15T15:47:32.443Z,64.60
2018-03-15T15:50:00.040Z,64.50
2018-03-15T15:52:28.364Z,64.50
2018-03-15T15:54:56.270Z,64.50
2018-03-15T15:57:24.362Z,64.80
2018-03-15T15:59:52.896Z,64.70
2018-03-15T16:02:21.322Z,64.80
2018-03-15T16:04:49.045Z,64.90
2018-03-15T16:07:16.900Z,65.50
2018-03-15T16:09:44.470Z,64.70
2018-03-15T16:12:12.077Z,65.40
2018-03-15T16:14:40.310Z,65.30
2018-03-15T16:17:07.845Z,65.20
2018-03-15T16:19:36.696Z,65.20
2018-03-15T16:22:05.017Z,65.10
2018-03-15T16:24:32.877Z,65.00
2018-03-15T16:27:00.775Z,64.90
2018-03-15T16:29:28.320Z,65.30
2018-03-15T16:31:55.998Z,65.60
2018-03-15T16:34:24.082Z,65.90
2018-03-15T16:36:52.115Z,65.90
2018-03-15T16:39:19.751Z,65.40
2018-03-15T16:41:47.899Z,65.80
2018-03-15T16:44:15.469Z,66.10
2018-03-15T16:46:43.024Z,66.70
2018-03-15T16:49:10.651Z,66.90
2018-03-15T16:51:38.256Z,66.80
2018-03-15T16:54:05.869Z,67.20
2018-03-15T16:56:33.705Z,67.60
2018-03-15T16:59:02.138Z,67.50
2018-03-15T17:01:29.709Z,67.40
2018-03-15T17:03:57.261Z,67.50
2018-03-15T17:06:24.965Z,67.70
2018-03-15T17:08:52.732Z,67.80
2018-03-15T17:11:21.073Z,68.20
2018-03-15T17:13:48.719Z,68.20
2018-03-15T17:16:16.333Z,68.10
2018-03-15T17:18:45.063Z,68.60
2018-03-15T17:21:12.813Z,68.50
2018-03-15T17:23:40.469Z,68.70
2018-03-15T17:26:08.354Z,69.00
2018-03-15T17:28:36.721Z,68.80
2018-03-15T17:31:04.449Z,68.80
2018-03-15T17:33:32.831Z,69.00
2018-03-15T17:36:00.418Z,69.20
2018-03-15T17:38:28.413Z,69.00
2018-03-15T17:40:56.005Z,68.90
2018-03-15T17:43:23.552Z,69.00
2018-03-15T17:45:51.103Z,69.20
2018-03-15T17:48:19.059Z,69.50
2018-03-15T17:50:46.640Z,69.40
2018-03-15T17:53:14.239Z,69.40
2018-03-15T17:55:42.602Z,69.80
2018-03-15T17:58:11.025Z,69.50
2018-03-15T18:00:38.745Z,69.80
2018-03-15T18:03:06.947Z,69.50
2018-03-15T18:05:34.555Z,69.50
2018-03-15T18:08:02.396Z,69.60
2018-03-15T18:10:29.983Z,69.90
2018-03-15T18:12:57.793Z,70.20
2018-03-15T18:15:26.403Z,70.50
2018-03-15T18:17:54.257Z,70.30
2018-03-15T18:20:21.797Z,71.00
2018-03-15T18:22:50.345Z,70.80
2018-03-15T18:25:17.938Z,70.80
2018-03-15T18:27:45.503Z,71.00
2018-03-15T18:30:14.629Z,70.90
2018-03-15T18:32:43.080Z,70.80
2018-03-15T18:35:10.828Z,71.10
2018-03-15T18:37:38.388Z,71.20
2018-03-15T18:40:05.992Z,71.30
2018-03-15T18:42:33.577Z,71.50
2018-03-15T18:45:01.117Z,71.70
2018-03-15T18:47:29.026Z,71.50
2018-03-15T18:49:57.119Z,71.70
2018-03-15T18:52:25.430Z,72.00
2018-03-15T18:54:53.225Z,71.90
2018-03-15T18:57:20.837Z,72.20
2018-03-15T18:59:49.039Z,71.90
2018-03-15T19:02:16.605Z,71.60
2018-03-15T19:04:44.317Z,72.00
2018-03-15T19:07:13.369Z,71.90
2018-03-15T19:09:40.899Z,72.20
2018-03-15T19:12:08.681Z,72.20
2018-03-15T19:14:36.816Z,72.50
2018-03-15T19:17:05.255Z,72.70
2018-03-15T19:19:33.062Z,72.60
2018-03-15T19:22:01.270Z,72.30
2018-03-15T19:24:29.428Z,72.50
2018-03-15T19:26:57.061Z,72.60
2018-03-15T19:29:25.643Z,72.80
2018-03-15T19:31:53.354Z,72.80
2018-03-15T19:34:22.119Z,72.70
2018-03-15T19:36:49.660Z,72.60
2018-03-15T19:39:19.077Z,72.90
2018-03-15T19:41:47.388Z,73.00
2018-03-15T19:44:15.382Z,72.90
2018-03-15T19:46:42.959Z,72.90
2018-03-15T19:49:10.542Z,73.40
2018-03-15T19:51:38.471Z,73.50
2018-03-15T19:54:06.690Z,73.50
2018-03-15T19:56:34.747Z,73.20
2018-03-15T19:59:02.573Z,73.10
2018-03-15T20:01:31.138Z,73.50
2018-03-15T20:03:59.686Z,73.60
2018-03-15T20:06:28.644Z,73.80
2018-03-15T20:08:57.209Z,73.80
2018-03-15T20:11:25.401Z,74.10
2018-03-15T20:13:53.585Z,74.20
2018-03-15T20:16:29.995Z,73.90
2018-03-15T20:19:03.337Z,74.20
2018-03-15T20:21:40.542Z,74.10
2018-03-15T20:24:14.969Z,73.90
2018-03-15T20:26:55.942Z,74.10
2018-03-15T20:29:23.953Z,74.30
2018-03-15T20:31:51.694Z,74.50
2018-03-15T20:34:19.795Z,74.50
2018-03-15T20:36:48.059Z,74.50
2018-03-15T20:39:21.562Z,74.20
2018-03-15T20:41:49.234Z,74.70
2018-03-15T20:44:16.887Z,74.60
2018-03-15T20:46:50.087Z,74.30
2018-03-15T20:49:17.928Z,74.10
2018-03-15T20:51:46.145Z,74.10
2018-03-15T20:54:13.731Z,74.10
2018-03-15T20:56:41.559Z,74.30
2018-03-15T20:59:09.134Z,74.30
2018-03-15T21:01:36.752Z,74.30
2018-03-15T21:04:04.335Z,74.40
2018-03-15T21:06:32.037Z,74.50
2018-03-15T21:08:59.624Z,74.60
2018-03-15T21:11:27.296Z,74.80
2018-03-15T21:13:54.925Z,74.90
2018-03-15T21:16:23.147Z,75.10
2018-03-15T21:18:50.716Z,75.30
2018-03-15T21:21:18.503Z,75.20
2018-03-15T21:23:46.082Z,74.90
2018-03-15T21:26:15.304Z,75.10
2018-03-15T21:28:43.154Z,75.10
2018-03-15T21:31:10.672Z,75.40
2018-03-15T21:33:38.193Z,75.70
2018-03-15T21:36:05.903Z,75.90
2018-03-15T21:38:33.632Z,75.90
2018-03-15T21:41:01.851Z,75.60
2018-03-15T21:43:29.477Z,75.60
2018-03-15T21:45:57.025Z,75.70
2018-03-15T21:48:24.565Z,75.40
2018-03-15T21:50:52.133Z,75.60
2018-03-15T21:53:20.331Z,75.70
2018-03-15T21:55:48.218Z,75.90
2018-03-15T21:58:16.903Z,76.10
2018-03-15T22:00:44.645Z,75.90
2018-03-15T22:03:12.985Z,76.00
2018-03-15T22:05:43.778Z,75.70
2018-03-15T22:08:11.637Z,75.70
2018-03-15T22:10:39.323Z,75.80
2018-03-15T22:13:06.866Z,76.10
2018-03-15T22:15:34.425Z,76.30
2018-03-15T22:18:01.977Z,76.40
2018-03-15T22:20:29.856Z,76.50
2018-03-15T22:22:57.428Z,76.60
2018-03-15T22:25:25.044Z,76.70
2018-03-15T22:27:53.360Z,77.00
2018-03-15T22:30:20.920Z,76.90
2018-03-15T22:32:48.477Z,77.20
2018-03-15T22:35:16.142Z,77.40
2018-03-15T22:37:43.785Z,77.00
2018-03-15T22:40:11.344Z,77.40
2018-03-15T22:42:39.400Z,77.50
2018-03-15T22:45:06.951Z,77.50
2018-03-15T22:47:35.270Z,77.40
2018-03-15T22:50:02.830Z,77.30
2018-03-15T22:52:30.551Z,77.40
2018-03-15T22:54:59.186Z,77.40
2018-03-15T22:57:26.776Z,77.40
2018-03-15T22:59:54.325Z,77.60
2018-03-15T23:02:22.565Z,77.70
2018-03-15T23:04:50.242Z,77.80
2018-03-15T23:07:17.835Z,77.70
2018-03-15T23:09:46.120Z,77.60
2018-03-15T23:12:13.674Z,77.40
2018-03-15T23:14:41.201Z,77.40
2018-03-15T23:17:08.755Z,77.80
2018-03-15T23:19:36.300Z,77.90
2018-03-15T23:22:03.884Z,77.40
2018-03-15T23:24:31.387Z,77.40
2018-03-15T23:26:58.941Z,77.40
2018-03-15T23:29:28.794Z,77.20
2018-03-15T23:31:57.092Z,77.20
2018-03-15T23:34:24.647Z,77.30
2018-03-15T23:36:52.221Z,77.40
2018-03-15T23:39:19.888Z,77.60
2018-03-15T23:41:47.435Z,77.40
2018-03-15T23:44:15.567Z,77.70
2018-03-15T23:46:43.462Z,77.50
2018-03-15T23:49:11.047Z,77.50
2018-03-15T23:51:39.094Z,77.10
2018-03-15T23:54:07.257Z,77.40
2018-03-15T23:56:34.821Z,77.20
2018-03-15T23:59:02.365Z,77.10
